sensor_id;sensor_type;location;lat;lon;timestamp;temperature;humidity
25937;DHT22;13733;51.178;4.450;2023-09-07T00:00:43;21.70;1.00
25937;DHT22;13733;51.178;4.450;2023-09-07T00:03:09;21.70;1.00
25937;DHT22;13733;51.178;4.450;2023-09-07T00:05:34;21.70;1.00
25937;DHT22;13733;51.178;4.450;2023-09-07T00:08:00;21.60;1.00
25937;DHT22;13733;51.178;4.450;2023-09-07T00:10:26;21.60;1.00
25937;DHT22;13733;51.178;4.450;2023-09-07T00:12:52;21.50;1.00
25937;DHT22;13733;51.178;4.450;2023-09-07T00:15:18;21.50;1.00
25937;DHT22;13733;51.178;4.450;2023-09-07T00:17:47;21.40;1.00
25937;DHT22;13733;51.178;4.450;2023-09-07T00:20:13;21.30;1.00
25937;DHT22;13733;51.178;4.450;2023-09-07T00:22:41;21.20;1.00
25937;DHT22;13733;51.178;4.450;2023-09-07T00:25:07;21.20;1.00
25937;DHT22;13733;51.178;4.450;2023-09-07T00:27:34;21.10;1.00
25937;DHT22;13733;51.178;4.450;2023-09-07T00:30:00;21.00;1.00
25937;DHT22;13733;51.178;4.450;2023-09-07T00:32:26;21.00;1.00
25937;DHT22;13733;51.178;4.450;2023-09-07T00:34:53;21.00;1.00
25937;DHT22;13733;51.178;4.450;2023-09-07T00:37:19;20.90;1.00
25937;DHT22;13733;51.178;4.450;2023-09-07T00:39:45;20.90;1.00
25937;DHT22;13733;51.178;4.450;2023-09-07T00:42:11;20.90;1.00
25937;DHT22;13733;51.178;4.450;2023-09-07T00:44:36;20.90;1.00
25937;DHT22;13733;51.178;4.450;2023-09-07T00:47:02;20.90;1.00
25937;DHT22;13733;51.178;4.450;2023-09-07T00:49:28;20.70;1.00
25937;DHT22;13733;51.178;4.450;2023-09-07T00:51:55;20.70;1.00
25937;DHT22;13733;51.178;4.450;2023-09-07T00:54:21;20.70;1.00
25937;DHT22;13733;51.178;4.450;2023-09-07T00:56:48;20.60;1.00
25937;DHT22;13733;51.178;4.450;2023-09-07T00:59:14;20.60;1.00
25937;DHT22;13733;51.178;4.450;2023-09-07T01:01:40;20.50;1.00
25937;DHT22;13733;51.178;4.450;2023-09-07T01:04:07;20.50;1.00
25937;DHT22;13733;51.178;4.450;2023-09-07T01:06:39;20.50;1.00
25937;DHT22;13733;51.178;4.450;2023-09-07T01:09:10;20.40;1.00
25937;DHT22;13733;51.178;4.450;2023-09-07T01:11:39;20.30;1.00
25937;DHT22;13733;51.178;4.450;2023-09-07T01:14:05;20.40;1.00
25937;DHT22;13733;51.178;4.450;2023-09-07T01:16:31;20.30;1.00
25937;DHT22;13733;51.178;4.450;2023-09-07T01:19:02;20.30;1.00
25937;DHT22;13733;51.178;4.450;2023-09-07T01:21:34;20.20;1.00
25937;DHT22;13733;51.178;4.450;2023-09-07T01:24:06;20.20;1.00
25937;DHT22;13733;51.178;4.450;2023-09-07T01:26:34;20.20;1.00
25937;DHT22;13733;51.178;4.450;2023-09-07T01:29:01;20.10;4.20
25937;DHT22;13733;51.178;4.450;2023-09-07T01:31:27;20.00;7.60
25937;DHT22;13733;51.178;4.450;2023-09-07T01:33:53;20.00;8.70
25937;DHT22;13733;51.178;4.450;2023-09-07T01:36:19;20.00;9.10
25937;DHT22;13733;51.178;4.450;2023-09-07T01:38:45;20.00;8.70
25937;DHT22;13733;51.178;4.450;2023-09-07T01:41:10;20.00;10.00
25937;DHT22;13733;51.178;4.450;2023-09-07T01:43:37;19.90;10.30
25937;DHT22;13733;51.178;4.450;2023-09-07T01:46:03;19.90;12.10
25937;DHT22;13733;51.178;4.450;2023-09-07T01:48:29;19.80;14.70
25937;DHT22;13733;51.178;4.450;2023-09-07T01:50:54;19.90;16.10
25937;DHT22;13733;51.178;4.450;2023-09-07T01:53:21;19.80;17.70
25937;DHT22;13733;51.178;4.450;2023-09-07T01:55:48;19.70;19.90
25937;DHT22;13733;51.178;4.450;2023-09-07T01:58:14;19.70;15.40
25937;DHT22;13733;51.178;4.450;2023-09-07T02:00:40;19.60;17.70
25937;DHT22;13733;51.178;4.450;2023-09-07T02:03:07;19.60;19.80
25937;DHT22;13733;51.178;4.450;2023-09-07T02:05:33;19.60;21.70
25937;DHT22;13733;51.178;4.450;2023-09-07T02:07:59;19.60;19.70
25937;DHT22;13733;51.178;4.450;2023-09-07T02:10:25;19.60;21.90
25937;DHT22;13733;51.178;4.450;2023-09-07T02:12:50;19.50;23.00
25937;DHT22;13733;51.178;4.450;2023-09-07T02:15:17;19.40;24.60
25937;DHT22;13733;51.178;4.450;2023-09-07T02:17:43;19.40;25.80
25937;DHT22;13733;51.178;4.450;2023-09-07T02:20:13;19.30;26.70
25937;DHT22;13733;51.178;4.450;2023-09-07T02:22:39;19.30;28.70
25937;DHT22;13733;51.178;4.450;2023-09-07T02:25:06;19.20;30.70
25937;DHT22;13733;51.178;4.450;2023-09-07T02:27:33;19.20;32.00
25937;DHT22;13733;51.178;4.450;2023-09-07T02:30:00;19.20;30.00
25937;DHT22;13733;51.178;4.450;2023-09-07T02:32:27;19.20;30.20
25937;DHT22;13733;51.178;4.450;2023-09-07T02:34:53;19.10;31.70
25937;DHT22;13733;51.178;4.450;2023-09-07T02:37:19;19.10;33.60
25937;DHT22;13733;51.178;4.450;2023-09-07T02:39:45;19.00;36.60
25937;DHT22;13733;51.178;4.450;2023-09-07T02:42:11;19.00;40.10
25937;DHT22;13733;51.178;4.450;2023-09-07T02:44:37;19.00;41.30
25937;DHT22;13733;51.178;4.450;2023-09-07T02:47:04;18.90;39.00
25937;DHT22;13733;51.178;4.450;2023-09-07T02:49:29;18.90;42.00
25937;DHT22;13733;51.178;4.450;2023-09-07T02:51:55;18.90;42.50
25937;DHT22;13733;51.178;4.450;2023-09-07T02:54:23;18.90;44.80
25937;DHT22;13733;51.178;4.450;2023-09-07T02:56:49;18.90;45.00
25937;DHT22;13733;51.178;4.450;2023-09-07T02:59:15;18.80;42.90
25937;DHT22;13733;51.178;4.450;2023-09-07T03:01:41;18.80;46.10
25937;DHT22;13733;51.178;4.450;2023-09-07T03:04:07;18.80;44.40
25937;DHT22;13733;51.178;4.450;2023-09-07T03:06:34;18.70;45.80
25937;DHT22;13733;51.178;4.450;2023-09-07T03:08:59;18.70;48.30
25937;DHT22;13733;51.178;4.450;2023-09-07T03:11:25;18.70;48.10
25937;DHT22;13733;51.178;4.450;2023-09-07T03:13:51;18.70;47.50
25937;DHT22;13733;51.178;4.450;2023-09-07T03:16:18;18.70;48.50
25937;DHT22;13733;51.178;4.450;2023-09-07T03:18:44;18.70;48.10
25937;DHT22;13733;51.178;4.450;2023-09-07T03:21:11;18.70;51.10
25937;DHT22;13733;51.178;4.450;2023-09-07T03:23:37;18.70;50.40
25937;DHT22;13733;51.178;4.450;2023-09-07T03:26:05;18.70;49.30
25937;DHT22;13733;51.178;4.450;2023-09-07T03:28:32;18.60;48.80
25937;DHT22;13733;51.178;4.450;2023-09-07T03:30:58;18.60;49.30
25937;DHT22;13733;51.178;4.450;2023-09-07T03:33:24;18.60;50.60
25937;DHT22;13733;51.178;4.450;2023-09-07T03:35:50;18.60;50.10
25937;DHT22;13733;51.178;4.450;2023-09-07T03:38:18;18.60;51.00
25937;DHT22;13733;51.178;4.450;2023-09-07T03:40:44;18.50;52.30
25937;DHT22;13733;51.178;4.450;2023-09-07T03:43:10;18.40;53.10
25937;DHT22;13733;51.178;4.450;2023-09-07T03:45:36;18.50;53.90
25937;DHT22;13733;51.178;4.450;2023-09-07T03:48:02;18.50;52.90
25937;DHT22;13733;51.178;4.450;2023-09-07T03:50:28;18.50;52.00
25937;DHT22;13733;51.178;4.450;2023-09-07T03:52:54;18.50;48.50
25937;DHT22;13733;51.178;4.450;2023-09-07T03:55:21;18.50;48.40
25937;DHT22;13733;51.178;4.450;2023-09-07T03:57:47;18.40;51.40
25937;DHT22;13733;51.178;4.450;2023-09-07T04:00:13;18.40;53.20
25937;DHT22;13733;51.178;4.450;2023-09-07T04:02:42;18.40;54.50
25937;DHT22;13733;51.178;4.450;2023-09-07T04:05:09;18.30;55.30
25937;DHT22;13733;51.178;4.450;2023-09-07T04:07:37;18.30;56.10
25937;DHT22;13733;51.178;4.450;2023-09-07T04:10:04;18.30;56.40
25937;DHT22;13733;51.178;4.450;2023-09-07T04:12:30;18.30;56.90
25937;DHT22;13733;51.178;4.450;2023-09-07T04:14:56;18.40;55.80
25937;DHT22;13733;51.178;4.450;2023-09-07T04:17:22;18.30;56.20
25937;DHT22;13733;51.178;4.450;2023-09-07T04:19:48;18.20;57.70
25937;DHT22;13733;51.178;4.450;2023-09-07T04:22:14;18.20;60.10
25937;DHT22;13733;51.178;4.450;2023-09-07T04:24:40;18.10;62.10
25937;DHT22;13733;51.178;4.450;2023-09-07T04:27:08;18.10;62.70
25937;DHT22;13733;51.178;4.450;2023-09-07T04:29:34;18.10;63.40
25937;DHT22;13733;51.178;4.450;2023-09-07T04:32:00;18.10;62.90
25937;DHT22;13733;51.178;4.450;2023-09-07T04:34:25;18.10;63.50
25937;DHT22;13733;51.178;4.450;2023-09-07T04:36:53;18.10;63.60
25937;DHT22;13733;51.178;4.450;2023-09-07T04:39:19;18.10;59.50
25937;DHT22;13733;51.178;4.450;2023-09-07T04:41:46;18.10;60.90
25937;DHT22;13733;51.178;4.450;2023-09-07T04:44:12;18.00;61.90
25937;DHT22;13733;51.178;4.450;2023-09-07T04:46:38;18.00;64.50
25937;DHT22;13733;51.178;4.450;2023-09-07T04:49:04;17.90;64.80
25937;DHT22;13733;51.178;4.450;2023-09-07T04:51:30;17.90;69.20
25937;DHT22;13733;51.178;4.450;2023-09-07T04:53:56;17.90;70.90
25937;DHT22;13733;51.178;4.450;2023-09-07T04:56:21;17.90;69.40
25937;DHT22;13733;51.178;4.450;2023-09-07T04:58:47;17.90;70.60
25937;DHT22;13733;51.178;4.450;2023-09-07T05:01:13;17.90;69.90
25937;DHT22;13733;51.178;4.450;2023-09-07T05:03:41;17.80;69.60
25937;DHT22;13733;51.178;4.450;2023-09-07T05:06:09;17.80;70.10
25937;DHT22;13733;51.178;4.450;2023-09-07T05:08:35;17.80;70.20
25937;DHT22;13733;51.178;4.450;2023-09-07T05:11:02;17.80;70.80
25937;DHT22;13733;51.178;4.450;2023-09-07T05:13:28;17.80;71.80
25937;DHT22;13733;51.178;4.450;2023-09-07T05:15:58;17.90;74.60
25937;DHT22;13733;51.178;4.450;2023-09-07T05:18:24;17.90;71.50
25937;DHT22;13733;51.178;4.450;2023-09-07T05:20:49;17.80;71.00
25937;DHT22;13733;51.178;4.450;2023-09-07T05:23:18;17.90;70.90
25937;DHT22;13733;51.178;4.450;2023-09-07T05:25:46;17.90;68.70
25937;DHT22;13733;51.178;4.450;2023-09-07T05:28:15;17.90;68.60
25937;DHT22;13733;51.178;4.450;2023-09-07T05:30:42;17.90;69.10
25937;DHT22;13733;51.178;4.450;2023-09-07T05:33:13;17.90;69.10
25937;DHT22;13733;51.178;4.450;2023-09-07T05:35:40;18.00;67.30
25937;DHT22;13733;51.178;4.450;2023-09-07T05:38:06;18.00;65.20
25937;DHT22;13733;51.178;4.450;2023-09-07T05:40:39;18.00;63.70
25937;DHT22;13733;51.178;4.450;2023-09-07T05:43:05;18.00;65.50
25937;DHT22;13733;51.178;4.450;2023-09-07T05:45:36;18.10;65.50
25937;DHT22;13733;51.178;4.450;2023-09-07T05:48:05;18.00;66.30
25937;DHT22;13733;51.178;4.450;2023-09-07T05:50:34;18.10;65.30
25937;DHT22;13733;51.178;4.450;2023-09-07T05:53:00;18.20;64.70
25937;DHT22;13733;51.178;4.450;2023-09-07T05:55:26;18.20;65.20
25937;DHT22;13733;51.178;4.450;2023-09-07T05:57:55;18.20;64.80
25937;DHT22;13733;51.178;4.450;2023-09-07T06:00:21;18.20;64.40
25937;DHT22;13733;51.178;4.450;2023-09-07T06:02:49;18.30;61.40
25937;DHT22;13733;51.178;4.450;2023-09-07T06:05:16;18.30;59.40
25937;DHT22;13733;51.178;4.450;2023-09-07T06:07:42;18.40;57.40
25937;DHT22;13733;51.178;4.450;2023-09-07T06:10:08;18.50;55.90
25937;DHT22;13733;51.178;4.450;2023-09-07T06:12:34;18.60;53.70
25937;DHT22;13733;51.178;4.450;2023-09-07T06:15:04;18.60;51.10
25937;DHT22;13733;51.178;4.450;2023-09-07T06:17:30;18.70;49.10
25937;DHT22;13733;51.178;4.450;2023-09-07T06:19:56;18.70;49.50
25937;DHT22;13733;51.178;4.450;2023-09-07T06:22:23;18.80;47.10
25937;DHT22;13733;51.178;4.450;2023-09-07T06:24:51;18.90;46.70
25937;DHT22;13733;51.178;4.450;2023-09-07T06:27:17;19.00;44.90
25937;DHT22;13733;51.178;4.450;2023-09-07T06:29:43;19.00;43.40
25937;DHT22;13733;51.178;4.450;2023-09-07T06:32:08;19.10;40.80
25937;DHT22;13733;51.178;4.450;2023-09-07T06:34:34;19.20;37.90
25937;DHT22;13733;51.178;4.450;2023-09-07T06:37:01;19.30;35.90
25937;DHT22;13733;51.178;4.450;2023-09-07T06:39:27;19.30;33.40
25937;DHT22;13733;51.178;4.450;2023-09-07T06:41:53;19.40;30.50
25937;DHT22;13733;51.178;4.450;2023-09-07T06:44:22;19.50;27.50
25937;DHT22;13733;51.178;4.450;2023-09-07T06:46:49;19.50;26.70
25937;DHT22;13733;51.178;4.450;2023-09-07T06:49:16;19.50;26.00
25937;DHT22;13733;51.178;4.450;2023-09-07T06:51:42;19.60;23.10
25937;DHT22;13733;51.178;4.450;2023-09-07T06:54:08;19.70;21.80
25937;DHT22;13733;51.178;4.450;2023-09-07T06:56:34;19.80;20.40
25937;DHT22;13733;51.178;4.450;2023-09-07T06:59:00;19.90;18.60
25937;DHT22;13733;51.178;4.450;2023-09-07T07:01:26;20.00;15.10
25937;DHT22;13733;51.178;4.450;2023-09-07T07:03:52;20.10;15.50
25937;DHT22;13733;51.178;4.450;2023-09-07T07:06:19;20.20;12.10
25937;DHT22;13733;51.178;4.450;2023-09-07T07:08:46;20.40;6.50
25937;DHT22;13733;51.178;4.450;2023-09-07T07:11:12;20.40;4.20
25937;DHT22;13733;51.178;4.450;2023-09-07T07:13:38;20.50;1.00
25937;DHT22;13733;51.178;4.450;2023-09-07T07:16:04;20.60;1.00
25937;DHT22;13733;51.178;4.450;2023-09-07T07:18:31;20.80;1.00
25937;DHT22;13733;51.178;4.450;2023-09-07T07:20:58;20.90;1.00
25937;DHT22;13733;51.178;4.450;2023-09-07T07:23:23;20.90;1.00
25937;DHT22;13733;51.178;4.450;2023-09-07T07:25:49;21.00;1.00
25937;DHT22;13733;51.178;4.450;2023-09-07T07:28:16;21.10;1.00
25937;DHT22;13733;51.178;4.450;2023-09-07T07:30:42;21.20;1.00
25937;DHT22;13733;51.178;4.450;2023-09-07T07:33:09;21.40;1.00
25937;DHT22;13733;51.178;4.450;2023-09-07T07:35:37;21.40;1.00
25937;DHT22;13733;51.178;4.450;2023-09-07T07:38:04;21.50;1.00
25937;DHT22;13733;51.178;4.450;2023-09-07T07:40:32;21.50;1.00
25937;DHT22;13733;51.178;4.450;2023-09-07T07:42:58;21.60;1.00
25937;DHT22;13733;51.178;4.450;2023-09-07T07:45:24;21.60;1.00
25937;DHT22;13733;51.178;4.450;2023-09-07T07:47:52;21.80;1.00
25937;DHT22;13733;51.178;4.450;2023-09-07T07:50:19;21.90;1.00
25937;DHT22;13733;51.178;4.450;2023-09-07T07:52:45;22.00;1.00
25937;DHT22;13733;51.178;4.450;2023-09-07T07:55:12;22.10;1.00
25937;DHT22;13733;51.178;4.450;2023-09-07T07:57:38;22.20;1.00
25937;DHT22;13733;51.178;4.450;2023-09-07T08:00:05;22.40;1.00
25937;DHT22;13733;51.178;4.450;2023-09-07T08:02:39;22.40;1.00
25937;DHT22;13733;51.178;4.450;2023-09-07T08:05:08;22.60;1.00
25937;DHT22;13733;51.178;4.450;2023-09-07T08:07:35;22.70;1.00
25937;DHT22;13733;51.178;4.450;2023-09-07T08:10:01;22.70;1.00
25937;DHT22;13733;51.178;4.450;2023-09-07T08:12:27;22.90;1.00
25937;DHT22;13733;51.178;4.450;2023-09-07T08:14:54;23.00;1.00
25937;DHT22;13733;51.178;4.450;2023-09-07T08:17:22;23.20;1.00
25937;DHT22;13733;51.178;4.450;2023-09-07T08:19:48;23.30;1.00
25937;DHT22;13733;51.178;4.450;2023-09-07T08:22:18;23.40;1.00
25937;DHT22;13733;51.178;4.450;2023-09-07T08:24:45;23.60;1.00
25937;DHT22;13733;51.178;4.450;2023-09-07T08:27:13;23.70;99.90
25937;DHT22;13733;51.178;4.450;2023-09-07T08:29:45;23.80;99.90
25937;DHT22;13733;51.178;4.450;2023-09-07T08:32:17;23.90;99.90
25937;DHT22;13733;51.178;4.450;2023-09-07T08:34:43;23.90;99.90
25937;DHT22;13733;51.178;4.450;2023-09-07T08:37:09;24.00;99.90
25937;DHT22;13733;51.178;4.450;2023-09-07T08:39:35;24.00;99.90
25937;DHT22;13733;51.178;4.450;2023-09-07T08:42:02;24.00;99.90
25937;DHT22;13733;51.178;4.450;2023-09-07T08:44:29;24.00;99.90
25937;DHT22;13733;51.178;4.450;2023-09-07T08:46:55;24.10;99.90
25937;DHT22;13733;51.178;4.450;2023-09-07T08:49:22;24.20;99.90
25937;DHT22;13733;51.178;4.450;2023-09-07T08:51:50;24.30;99.90
25937;DHT22;13733;51.178;4.450;2023-09-07T08:54:19;24.50;99.90
25937;DHT22;13733;51.178;4.450;2023-09-07T08:56:46;24.50;99.90
25937;DHT22;13733;51.178;4.450;2023-09-07T08:59:12;24.70;99.90
25937;DHT22;13733;51.178;4.450;2023-09-07T09:01:38;24.70;99.90
25937;DHT22;13733;51.178;4.450;2023-09-07T09:04:05;24.90;99.90
25937;DHT22;13733;51.178;4.450;2023-09-07T09:06:31;25.10;99.90
25937;DHT22;13733;51.178;4.450;2023-09-07T09:08:57;25.10;99.90
25937;DHT22;13733;51.178;4.450;2023-09-07T09:11:24;25.20;81.50
25937;DHT22;13733;51.178;4.450;2023-09-07T09:13:52;25.20;91.50
25937;DHT22;13733;51.178;4.450;2023-09-07T09:16:19;25.40;97.20
25937;DHT22;13733;51.178;4.450;2023-09-07T09:21:15;25.70;1.00
25937;DHT22;13733;51.178;4.450;2023-09-07T09:23:41;25.90;1.00
25937;DHT22;13733;51.178;4.450;2023-09-07T09:26:07;26.00;1.00
25937;DHT22;13733;51.178;4.450;2023-09-07T09:28:34;26.10;99.90
25937;DHT22;13733;51.178;4.450;2023-09-07T09:31:03;26.20;99.90
25937;DHT22;13733;51.178;4.450;2023-09-07T09:33:32;26.20;99.90
25937;DHT22;13733;51.178;4.450;2023-09-07T09:36:01;26.30;1.00
25937;DHT22;13733;51.178;4.450;2023-09-07T09:38:28;26.30;1.00
25937;DHT22;13733;51.178;4.450;2023-09-07T09:40:55;26.60;1.00
25937;DHT22;13733;51.178;4.450;2023-09-07T09:43:20;26.80;99.90
25937;DHT22;13733;51.178;4.450;2023-09-07T09:45:48;27.00;99.90
25937;DHT22;13733;51.178;4.450;2023-09-07T09:48:16;27.10;99.90
25937;DHT22;13733;51.178;4.450;2023-09-07T09:50:44;27.20;99.90
25937;DHT22;13733;51.178;4.450;2023-09-07T09:53:12;27.30;99.90
25937;DHT22;13733;51.178;4.450;2023-09-07T09:55:41;27.50;1.00
25937;DHT22;13733;51.178;4.450;2023-09-07T09:58:07;27.60;1.00
25937;DHT22;13733;51.178;4.450;2023-09-07T10:00:33;27.70;1.00
25937;DHT22;13733;51.178;4.450;2023-09-07T10:03:22;27.70;1.00
25937;DHT22;13733;51.178;4.450;2023-09-07T10:05:49;27.90;99.90
25937;DHT22;13733;51.178;4.450;2023-09-07T10:08:17;28.00;99.90
25937;DHT22;13733;51.178;4.450;2023-09-07T10:10:46;28.20;99.90
25937;DHT22;13733;51.178;4.450;2023-09-07T10:13:15;28.50;99.90
25937;DHT22;13733;51.178;4.450;2023-09-07T10:15:41;28.70;99.90
25937;DHT22;13733;51.178;4.450;2023-09-07T10:23:14;28.90;99.90
25937;DHT22;13733;51.178;4.450;2023-09-07T10:25:40;29.00;1.00
25937;DHT22;13733;51.178;4.450;2023-09-07T10:28:18;29.10;1.00
25937;DHT22;13733;51.178;4.450;2023-09-07T10:30:44;29.20;99.90
25937;DHT22;13733;51.178;4.450;2023-09-07T10:33:22;29.30;99.90
25937;DHT22;13733;51.178;4.450;2023-09-07T10:35:48;29.60;99.90
25937;DHT22;13733;51.178;4.450;2023-09-07T10:38:14;30.10;99.90
25937;DHT22;13733;51.178;4.450;2023-09-07T10:40:44;30.60;1.00
25937;DHT22;13733;51.178;4.450;2023-09-07T10:43:10;30.70;99.90
25937;DHT22;13733;51.178;4.450;2023-09-07T10:45:36;30.80;99.90
25937;DHT22;13733;51.178;4.450;2023-09-07T10:48:02;31.20;99.90
25937;DHT22;13733;51.178;4.450;2023-09-07T10:50:45;31.80;99.90
25937;DHT22;13733;51.178;4.450;2023-09-07T10:53:13;32.30;99.90
25937;DHT22;13733;51.178;4.450;2023-09-07T10:55:40;32.50;56.60
25937;DHT22;13733;51.178;4.450;2023-09-07T10:58:09;32.50;13.80
25937;DHT22;13733;51.178;4.450;2023-09-07T11:00:35;32.80;1.00
25937;DHT22;13733;51.178;4.450;2023-09-07T11:03:09;33.10;1.00
25937;DHT22;13733;51.178;4.450;2023-09-07T11:05:37;33.30;1.00
25937;DHT22;13733;51.178;4.450;2023-09-07T11:08:05;33.60;1.00
25937;DHT22;13733;51.178;4.450;2023-09-07T11:10:34;34.00;1.00
25937;DHT22;13733;51.178;4.450;2023-09-07T11:13:04;34.50;1.00
25937;DHT22;13733;51.178;4.450;2023-09-07T11:15:31;34.50;1.00
25937;DHT22;13733;51.178;4.450;2023-09-07T11:18:05;34.80;1.00
25937;DHT22;13733;51.178;4.450;2023-09-07T11:20:36;35.00;1.00
25937;DHT22;13733;51.178;4.450;2023-09-07T11:23:02;35.10;1.00
25937;DHT22;13733;51.178;4.450;2023-09-07T11:25:38;35.30;1.00
25937;DHT22;13733;51.178;4.450;2023-09-07T11:28:08;35.30;1.00
25937;DHT22;13733;51.178;4.450;2023-09-07T11:30:35;35.40;99.90
25937;DHT22;13733;51.178;4.450;2023-09-07T11:35:27;35.60;99.90
25937;DHT22;13733;51.178;4.450;2023-09-07T11:37:54;35.90;99.90
25937;DHT22;13733;51.178;4.450;2023-09-07T11:40:19;36.20;99.90
25937;DHT22;13733;51.178;4.450;2023-09-07T11:42:45;36.30;99.90
25937;DHT22;13733;51.178;4.450;2023-09-07T11:45:11;36.50;99.90
25937;DHT22;13733;51.178;4.450;2023-09-07T11:47:39;36.80;99.90
25937;DHT22;13733;51.178;4.450;2023-09-07T11:50:05;36.90;99.90
25937;DHT22;13733;51.178;4.450;2023-09-07T11:52:32;37.00;99.90
25937;DHT22;13733;51.178;4.450;2023-09-07T11:54:58;37.20;99.90
25937;DHT22;13733;51.178;4.450;2023-09-07T11:57:24;37.40;99.90
25937;DHT22;13733;51.178;4.450;2023-09-07T11:59:50;37.50;99.90
25937;DHT22;13733;51.178;4.450;2023-09-07T12:02:16;37.80;99.90
25937;DHT22;13733;51.178;4.450;2023-09-07T12:04:43;38.20;99.90
25937;DHT22;13733;51.178;4.450;2023-09-07T12:07:10;38.80;99.90
25937;DHT22;13733;51.178;4.450;2023-09-07T12:09:37;38.50;99.90
25937;DHT22;13733;51.178;4.450;2023-09-07T12:12:04;38.40;99.90
25937;DHT22;13733;51.178;4.450;2023-09-07T12:14:30;38.30;99.90
25937;DHT22;13733;51.178;4.450;2023-09-07T12:16:56;38.70;99.90
25937;DHT22;13733;51.178;4.450;2023-09-07T12:19:22;39.00;99.90
25937;DHT22;13733;51.178;4.450;2023-09-07T12:21:48;39.40;99.90
25937;DHT22;13733;51.178;4.450;2023-09-07T12:24:14;39.70;99.90
25937;DHT22;13733;51.178;4.450;2023-09-07T12:26:39;39.80;99.90
25937;DHT22;13733;51.178;4.450;2023-09-07T12:29:05;40.10;99.90
25937;DHT22;13733;51.178;4.450;2023-09-07T12:31:33;40.60;99.90
25937;DHT22;13733;51.178;4.450;2023-09-07T12:33:58;40.70;99.90
25937;DHT22;13733;51.178;4.450;2023-09-07T12:36:24;40.80;99.90
25937;DHT22;13733;51.178;4.450;2023-09-07T12:38:53;40.40;99.90
25937;DHT22;13733;51.178;4.450;2023-09-07T12:41:19;39.60;99.90
25937;DHT22;13733;51.178;4.450;2023-09-07T12:43:46;39.20;99.90
25937;DHT22;13733;51.178;4.450;2023-09-07T12:46:12;39.50;99.90
25937;DHT22;13733;51.178;4.450;2023-09-07T12:48:39;39.40;99.90
25937;DHT22;13733;51.178;4.450;2023-09-07T12:51:04;39.60;99.90
25937;DHT22;13733;51.178;4.450;2023-09-07T12:53:30;39.70;99.90
25937;DHT22;13733;51.178;4.450;2023-09-07T12:55:56;40.20;99.90
25937;DHT22;13733;51.178;4.450;2023-09-07T12:58:22;40.10;99.90
25937;DHT22;13733;51.178;4.450;2023-09-07T13:00:47;40.70;99.90
25937;DHT22;13733;51.178;4.450;2023-09-07T13:03:14;41.20;99.90
25937;DHT22;13733;51.178;4.450;2023-09-07T13:05:40;41.30;99.90
25937;DHT22;13733;51.178;4.450;2023-09-07T13:08:06;40.60;99.90
25937;DHT22;13733;51.178;4.450;2023-09-07T13:10:32;40.30;99.90
25937;DHT22;13733;51.178;4.450;2023-09-07T13:12:58;40.30;99.90
25937;DHT22;13733;51.178;4.450;2023-09-07T13:15:24;40.00;99.90
25937;DHT22;13733;51.178;4.450;2023-09-07T13:17:49;39.90;99.90
25937;DHT22;13733;51.178;4.450;2023-09-07T13:20:15;40.40;99.90
25937;DHT22;13733;51.178;4.450;2023-09-07T13:22:42;40.60;99.90
25937;DHT22;13733;51.178;4.450;2023-09-07T13:25:08;40.60;99.90
25937;DHT22;13733;51.178;4.450;2023-09-07T13:27:33;40.70;99.90
25937;DHT22;13733;51.178;4.450;2023-09-07T13:30:00;40.90;99.90
25937;DHT22;13733;51.178;4.450;2023-09-07T13:32:27;41.10;99.90
25937;DHT22;13733;51.178;4.450;2023-09-07T13:34:53;42.10;99.90
25937;DHT22;13733;51.178;4.450;2023-09-07T13:37:19;42.50;99.90
25937;DHT22;13733;51.178;4.450;2023-09-07T13:39:44;41.70;99.90
25937;DHT22;13733;51.178;4.450;2023-09-07T13:42:10;41.80;99.90
25937;DHT22;13733;51.178;4.450;2023-09-07T13:44:36;42.50;99.90
25937;DHT22;13733;51.178;4.450;2023-09-07T13:47:02;43.20;99.90
25937;DHT22;13733;51.178;4.450;2023-09-07T13:49:27;43.40;99.90
25937;DHT22;13733;51.178;4.450;2023-09-07T13:51:53;43.10;99.90
25937;DHT22;13733;51.178;4.450;2023-09-07T13:54:19;42.10;99.90
25937;DHT22;13733;51.178;4.450;2023-09-07T13:56:45;42.50;99.90
25937;DHT22;13733;51.178;4.450;2023-09-07T13:59:12;43.60;99.90
25937;DHT22;13733;51.178;4.450;2023-09-07T14:01:37;43.90;99.90
25937;DHT22;13733;51.178;4.450;2023-09-07T14:04:04;43.00;99.90
25937;DHT22;13733;51.178;4.450;2023-09-07T14:06:30;41.80;99.90
25937;DHT22;13733;51.178;4.450;2023-09-07T14:08:56;42.30;99.90
25937;DHT22;13733;51.178;4.450;2023-09-07T14:11:21;42.40;99.90
25937;DHT22;13733;51.178;4.450;2023-09-07T14:13:50;43.20;99.90
25937;DHT22;13733;51.178;4.450;2023-09-07T14:16:20;43.80;99.90
25937;DHT22;13733;51.178;4.450;2023-09-07T14:18:46;43.00;99.90
25937;DHT22;13733;51.178;4.450;2023-09-07T14:21:16;43.60;99.90
25937;DHT22;13733;51.178;4.450;2023-09-07T14:23:43;43.90;99.90
25937;DHT22;13733;51.178;4.450;2023-09-07T14:26:08;43.90;99.90
25937;DHT22;13733;51.178;4.450;2023-09-07T14:28:35;43.90;99.90
25937;DHT22;13733;51.178;4.450;2023-09-07T14:31:01;43.60;99.90
25937;DHT22;13733;51.178;4.450;2023-09-07T14:33:32;43.70;99.90
25937;DHT22;13733;51.178;4.450;2023-09-07T14:35:58;43.00;99.90
25937;DHT22;13733;51.178;4.450;2023-09-07T14:38:24;43.40;99.90
25937;DHT22;13733;51.178;4.450;2023-09-07T14:40:53;43.70;99.90
25937;DHT22;13733;51.178;4.450;2023-09-07T14:43:22;44.20;99.90
25937;DHT22;13733;51.178;4.450;2023-09-07T14:45:48;44.20;99.90
25937;DHT22;13733;51.178;4.450;2023-09-07T14:48:14;44.10;99.90
25937;DHT22;13733;51.178;4.450;2023-09-07T14:50:40;43.90;99.90
25937;DHT22;13733;51.178;4.450;2023-09-07T14:53:06;43.90;99.90
25937;DHT22;13733;51.178;4.450;2023-09-07T14:55:32;43.10;99.90
25937;DHT22;13733;51.178;4.450;2023-09-07T14:57:58;43.10;99.90
25937;DHT22;13733;51.178;4.450;2023-09-07T15:00:24;43.20;99.90
25937;DHT22;13733;51.178;4.450;2023-09-07T15:02:53;43.60;99.90
25937;DHT22;13733;51.178;4.450;2023-09-07T15:05:19;44.20;99.90
25937;DHT22;13733;51.178;4.450;2023-09-07T15:07:44;44.20;99.90
25937;DHT22;13733;51.178;4.450;2023-09-07T15:10:10;45.00;99.90
25937;DHT22;13733;51.178;4.450;2023-09-07T15:12:36;44.80;99.90
25937;DHT22;13733;51.178;4.450;2023-09-07T15:15:02;45.70;99.90
25937;DHT22;13733;51.178;4.450;2023-09-07T15:17:28;46.30;99.90
25937;DHT22;13733;51.178;4.450;2023-09-07T15:19:54;47.00;99.90
25937;DHT22;13733;51.178;4.450;2023-09-07T15:22:19;47.20;99.90
25937;DHT22;13733;51.178;4.450;2023-09-07T15:24:45;47.40;99.90
25937;DHT22;13733;51.178;4.450;2023-09-07T15:27:12;48.10;99.90
25937;DHT22;13733;51.178;4.450;2023-09-07T15:29:38;48.30;99.90
25937;DHT22;13733;51.178;4.450;2023-09-07T15:32:04;48.10;99.90
25937;DHT22;13733;51.178;4.450;2023-09-07T15:34:31;47.90;99.90
25937;DHT22;13733;51.178;4.450;2023-09-07T15:36:57;47.60;99.90
25937;DHT22;13733;51.178;4.450;2023-09-07T15:39:23;47.70;99.90
25937;DHT22;13733;51.178;4.450;2023-09-07T15:41:49;47.50;99.90